Teton, Idaho
Current Conditions -  °F | °C
As of 4:18 AM on Monday 22 Dec 2014 (Local Time) from KRXE Reporting Station
Broken Clouds Broken Clouds  
Wind Chill: 23°   Ceiling: 800
Heat Index: 32°   Visibility: 10mi
Dew Point: 30°   Wind: 12mph
Humidity: 92%   Direction: 200°SSW
Pressure: 29.89"   Gusts: NA
Location:  43.89°N, 111.68°W
Report Text: KRXE 221118Z AUTO 20010KT 10SM BKN008 BKN120 00/M01 A2989 RMK AO2 T00001011
Loading
Personal Weather Stations






























Interactive Weather Map New forecast layout! Learn more

10-Day Weather Forecast

Advertisements
Track Severe Weather on mobile